CET,Max TemperatureF,Mean TemperatureF,Min TemperatureF,Max Dew PointF,MeanDew PointF,Min DewpointF,Max Humidity, Mean Humidity, Min Humidity, Max Sea Level PressureIn, Mean Sea Level PressureIn, Min Sea Level PressureIn, Max VisibilityMiles, Mean VisibilityMiles, Min VisibilityMiles, Max Wind SpeedMPH, Mean Wind SpeedMPH, Max Gust SpeedMPH,PrecipitationIn, CloudCover, Events, WindDirDegrees
2012-10-1,75,67,59,68,62,57,94,86,73,30.04,30.00,29.98,6,6,6,6,3,,0.00,3,,336
2012-10-2,75,68,60,66,63,59,94,84,69,30.09,30.04,29.98,6,6,6,13,3,,0.00,2,Fog,258
2012-10-3,75,67,59,63,60,55,100,81,57,30.12,30.09,30.06,6,6,6,8,3,,0.00,2,,168
2012-10-4,75,65,55,63,59,52,94,80,53,30.12,30.08,30.06,6,6,5,8,3,,0.00,1,,3
2012-10-5,77,67,57,66,60,55,100,81,47,30.15,30.11,30.09,6,6,4,8,2,,0.00,1,,20
2012-10-6,78,66,55,64,58,52,94,78,44,30.15,30.13,30.09,6,6,6,8,3,,0.00,1,,146
2012-10-7,73,64,55,66,61,50,94,83,77,30.12,30.04,29.98,6,6,6,13,4,,0.00,3,,142
2012-10-8,78,70,62,70,65,61,94,83,61,29.98,29.95,29.92,6,6,6,12,3,,0.00,2,,187
2012-10-9,75,68,62,68,65,59,100,89,73,29.95,29.87,29.80,6,6,5,10,4,,0.00,3,,172
2012-10-10,77,68,59,66,62,57,94,85,69,29.83,29.80,29.77,6,6,6,8,2,,0.00,2,,350
2012-10-11,77,68,59,68,63,57,94,85,65,29.89,29.83,29.80,6,6,4,9,2,,0.00,2,,200
2012-10-12,73,68,62,66,64,61,94,86,73,29.89,29.83,29.80,6,6,4,15,7,,0.00,3,Rain-Thunderstorm,174
2012-10-13,69,64,59,64,60,57,94,91,83,29.89,29.86,29.80,6,6,4,10,3,,0.00,4,Fog-Rain-Thunderstorm,117
2012-10-14,71,63,55,63,58,54,94,84,64,29.83,29.80,29.77,6,6,6,9,3,,0.00,2,,140
2012-10-15,73,66,59,66,61,55,100,86,69,29.77,29.70,29.65,6,6,3,18,8,30,0.00,2,Rain-Thunderstorm,169
2012-10-16,69,63,57,59,53,48,94,73,49,30.09,29.89,29.71,6,6,5,8,6,,0.00,2,Rain,189
2012-10-17,73,64,55,61,56,52,94,78,57,30.21,30.15,30.09,6,6,6,10,4,,0.00,2,,144
2012-10-18,75,63,51,63,56,50,94,84,57,30.18,30.16,30.12,6,6,6,5,2,,0.00,2,,51
2012-10-19,77,64,51,63,55,50,94,78,47,30.18,30.15,30.12,6,6,6,5,2,,0.00,1,,31
2012-10-20,78,66,55,66,58,52,94,80,51,30.15,30.11,30.09,6,6,6,6,2,,0.00,1,,38
2012-10-21,78,68,57,64,59,55,100,79,47,30.09,30.04,30.01,6,6,6,6,2,,0.00,3,,40
2012-10-22,80,70,60,68,60,52,94,77,39,30.04,30.02,29.98,6,6,4,7,2,,0.00,3,,244
2012-10-23,75,68,60,68,64,57,94,89,69,30.04,30.02,30.01,6,6,5,8,3,,0.00,3,,83
2012-10-24,75,66,57,63,58,54,94,80,50,30.01,29.97,29.92,6,6,4,12,4,,0.00,1,,116
2012-10-25,75,64,53,63,56,52,94,81,60,29.98,29.92,29.89,6,6,6,7,3,,0.00,1,,47
2012-10-26,69,63,57,64,59,54,94,87,73,29.89,29.74,29.47,6,5,1,21,7,36,0.00,4,Rain-Thunderstorm,139
2012-10-27,69,66,62,66,63,59,94,89,73,29.50,29.36,29.27,6,6,4,21,11,32,0.00,3,Rain-Thunderstorm,188
2012-10-28,60,55,50,59,46,36,94,71,48,29.59,29.50,29.30,6,6,6,12,8,24,0.00,4,Rain-Thunderstorm,214
2012-10-29,55,50,44,46,44,41,100,83,67,29.89,29.70,29.56,6,6,4,9,5,,0.00,2,Rain-Thunderstorm,22
2012-10-30,59,49,39,48,42,37,93,78,55,29.92,29.86,29.77,6,6,6,9,3,,0.00,2,,47
2012-10-31,64,58,53,61,53,46,94,84,72,29.77,29.54,29.33,6,4,1,30,13,47,0.00,4,Rain,118